sensor_id;sensor_type;location;lat;lon;timestamp;P1;durP1;ratioP1;P2;durP2;ratioP2
44462;SDS011;30170;52.190;8.702;2023-04-08T00:01:13;6.93;;;4.00;;
44462;SDS011;30170;52.190;8.702;2023-04-08T00:04:18;5.55;;;3.78;;
44462;SDS011;30170;52.190;8.702;2023-04-08T00:06:57;6.30;;;3.90;;
44462;SDS011;30170;52.190;8.702;2023-04-08T00:09:47;6.60;;;4.07;;
44462;SDS011;30170;52.190;8.702;2023-04-08T00:12:38;7.32;;;4.55;;
44462;SDS011;30170;52.190;8.702;2023-04-08T00:15:35;6.88;;;3.97;;
44462;SDS011;30170;52.190;8.702;2023-04-08T00:22:14;6.22;;;4.18;;
44462;SDS011;30170;52.190;8.702;2023-04-08T00:25:13;9.00;;;4.43;;
44462;SDS011;30170;52.190;8.702;2023-04-08T00:27:50;7.88;;;4.78;;
44462;SDS011;30170;52.190;8.702;2023-04-08T00:30:47;7.53;;;4.10;;
44462;SDS011;30170;52.190;8.702;2023-04-08T00:33:38;7.10;;;4.35;;
44462;SDS011;30170;52.190;8.702;2023-04-08T00:39:18;7.93;;;5.65;;
44462;SDS011;30170;52.190;8.702;2023-04-08T00:44:55;6.50;;;4.45;;
44462;SDS011;30170;52.190;8.702;2023-04-08T00:47:42;7.88;;;4.85;;
44462;SDS011;30170;52.190;8.702;2023-04-08T00:50:37;8.00;;;5.05;;
44462;SDS011;30170;52.190;8.702;2023-04-08T00:53:35;8.05;;;4.97;;
44462;SDS011;30170;52.190;8.702;2023-04-08T00:59:31;8.43;;;5.13;;
44462;SDS011;30170;52.190;8.702;2023-04-08T01:09:12;9.68;;;5.47;;
44462;SDS011;30170;52.190;8.702;2023-04-08T01:12:31;8.23;;;5.47;;
44462;SDS011;30170;52.190;8.702;2023-04-08T01:15:18;10.35;;;5.50;;
44462;SDS011;30170;52.190;8.702;2023-04-08T01:18:15;10.85;;;6.15;;
44462;SDS011;30170;52.190;8.702;2023-04-08T01:20:51;9.95;;;5.55;;
44462;SDS011;30170;52.190;8.702;2023-04-08T01:26:57;9.98;;;6.15;;
44462;SDS011;30170;52.190;8.702;2023-04-08T01:29:37;11.13;;;6.25;;
44462;SDS011;30170;52.190;8.702;2023-04-08T01:32:21;10.45;;;7.13;;
44462;SDS011;30170;52.190;8.702;2023-04-08T01:35:12;10.10;;;6.38;;
44462;SDS011;30170;52.190;8.702;2023-04-08T01:38:01;9.32;;;6.85;;
44462;SDS011;30170;52.190;8.702;2023-04-08T01:41:09;10.55;;;6.18;;
44462;SDS011;30170;52.190;8.702;2023-04-08T01:43:52;9.95;;;6.30;;
44462;SDS011;30170;52.190;8.702;2023-04-08T01:46:33;8.88;;;5.60;;
44462;SDS011;30170;52.190;8.702;2023-04-08T01:49:16;11.13;;;6.55;;
44462;SDS011;30170;52.190;8.702;2023-04-08T01:51:53;12.65;;;7.63;;
44462;SDS011;30170;52.190;8.702;2023-04-08T01:54:57;10.10;;;6.22;;
44462;SDS011;30170;52.190;8.702;2023-04-08T02:00:57;9.20;;;5.75;;
44462;SDS011;30170;52.190;8.702;2023-04-08T02:03:46;9.65;;;7.38;;
44462;SDS011;30170;52.190;8.702;2023-04-08T02:06:37;11.27;;;7.22;;
44462;SDS011;30170;52.190;8.702;2023-04-08T02:09:22;10.00;;;7.45;;
44462;SDS011;30170;52.190;8.702;2023-04-08T02:15:18;9.15;;;6.20;;
44462;SDS011;30170;52.190;8.702;2023-04-08T02:18:21;11.15;;;7.63;;
44462;SDS011;30170;52.190;8.702;2023-04-08T02:21:16;9.43;;;6.72;;
44462;SDS011;30170;52.190;8.702;2023-04-08T02:24:09;10.18;;;6.93;;
44462;SDS011;30170;52.190;8.702;2023-04-08T02:30:20;13.20;;;6.78;;
44462;SDS011;30170;52.190;8.702;2023-04-08T02:33:04;11.35;;;7.85;;
44462;SDS011;30170;52.190;8.702;2023-04-08T02:39:13;10.55;;;6.88;;
44462;SDS011;30170;52.190;8.702;2023-04-08T02:42:18;12.57;;;8.82;;
44462;SDS011;30170;52.190;8.702;2023-04-08T02:45:05;13.43;;;8.75;;
44462;SDS011;30170;52.190;8.702;2023-04-08T02:47:42;13.68;;;7.97;;
44462;SDS011;30170;52.190;8.702;2023-04-08T02:50:36;14.70;;;9.95;;
44462;SDS011;30170;52.190;8.702;2023-04-08T02:53:31;14.27;;;8.88;;
44462;SDS011;30170;52.190;8.702;2023-04-08T02:56:23;16.67;;;11.63;;
44462;SDS011;30170;52.190;8.702;2023-04-08T02:59:07;15.18;;;8.15;;
44462;SDS011;30170;52.190;8.702;2023-04-08T03:02:09;14.60;;;8.70;;
44462;SDS011;30170;52.190;8.702;2023-04-08T03:04:46;18.17;;;9.45;;
44462;SDS011;30170;52.190;8.702;2023-04-08T03:07:57;14.30;;;8.52;;
44462;SDS011;30170;52.190;8.702;2023-04-08T03:13:45;13.50;;;8.23;;
44462;SDS011;30170;52.190;8.702;2023-04-08T03:16:45;10.90;;;6.72;;
44462;SDS011;30170;52.190;8.702;2023-04-08T03:19:26;10.75;;;6.22;;
44462;SDS011;30170;52.190;8.702;2023-04-08T03:22:16;10.88;;;6.03;;
44462;SDS011;30170;52.190;8.702;2023-04-08T03:25:10;10.73;;;6.10;;
44462;SDS011;30170;52.190;8.702;2023-04-08T03:27:50;8.73;;;5.20;;
44462;SDS011;30170;52.190;8.702;2023-04-08T03:30:24;9.60;;;6.70;;
44462;SDS011;30170;52.190;8.702;2023-04-08T03:33:02;9.25;;;5.63;;
44462;SDS011;30170;52.190;8.702;2023-04-08T03:36:03;12.05;;;6.80;;
44462;SDS011;30170;52.190;8.702;2023-04-08T03:38:57;8.90;;;5.63;;
44462;SDS011;30170;52.190;8.702;2023-04-08T03:44:59;8.95;;;5.88;;
44462;SDS011;30170;52.190;8.702;2023-04-08T03:47:45;9.05;;;5.43;;
44462;SDS011;30170;52.190;8.702;2023-04-08T03:50:48;7.90;;;6.05;;
44462;SDS011;30170;52.190;8.702;2023-04-08T03:56:37;10.27;;;5.53;;
44462;SDS011;30170;52.190;8.702;2023-04-08T03:59:27;9.20;;;5.40;;
44462;SDS011;30170;52.190;8.702;2023-04-08T04:02:17;7.07;;;5.47;;
44462;SDS011;30170;52.190;8.702;2023-04-08T04:04:53;8.35;;;5.80;;
44462;SDS011;30170;52.190;8.702;2023-04-08T04:08:00;10.02;;;5.82;;
44462;SDS011;30170;52.190;8.702;2023-04-08T04:10:41;8.57;;;5.35;;
44462;SDS011;30170;52.190;8.702;2023-04-08T04:17:06;12.25;;;5.97;;
44462;SDS011;30170;52.190;8.702;2023-04-08T04:20:03;10.63;;;6.47;;
44462;SDS011;30170;52.190;8.702;2023-04-08T04:23:10;10.38;;;6.07;;
44462;SDS011;30170;52.190;8.702;2023-04-08T04:28:49;11.05;;;6.95;;
44462;SDS011;30170;52.190;8.702;2023-04-08T04:31:43;11.82;;;6.20;;
44462;SDS011;30170;52.190;8.702;2023-04-08T04:34:48;11.90;;;8.82;;
44462;SDS011;30170;52.190;8.702;2023-04-08T04:41:13;12.33;;;6.60;;
44462;SDS011;30170;52.190;8.702;2023-04-08T04:43:54;10.27;;;6.10;;
44462;SDS011;30170;52.190;8.702;2023-04-08T04:46:36;12.15;;;6.43;;
44462;SDS011;30170;52.190;8.702;2023-04-08T04:49:37;10.75;;;6.03;;
44462;SDS011;30170;52.190;8.702;2023-04-08T04:52:42;12.15;;;6.13;;
44462;SDS011;30170;52.190;8.702;2023-04-08T04:55:26;8.95;;;6.07;;
44462;SDS011;30170;52.190;8.702;2023-04-08T04:58:18;11.77;;;7.18;;
44462;SDS011;30170;52.190;8.702;2023-04-08T05:00:51;10.50;;;5.70;;
44462;SDS011;30170;52.190;8.702;2023-04-08T05:03:42;13.30;;;6.88;;
44462;SDS011;30170;52.190;8.702;2023-04-08T05:06:41;10.93;;;6.80;;
44462;SDS011;30170;52.190;8.702;2023-04-08T05:09:38;10.35;;;6.00;;
44462;SDS011;30170;52.190;8.702;2023-04-08T05:12:23;10.35;;;6.28;;
44462;SDS011;30170;52.190;8.702;2023-04-08T05:14:59;11.75;;;6.65;;
44462;SDS011;30170;52.190;8.702;2023-04-08T05:17:46;12.85;;;6.68;;
44462;SDS011;30170;52.190;8.702;2023-04-08T05:20:39;11.50;;;6.72;;
44462;SDS011;30170;52.190;8.702;2023-04-08T05:23:30;12.50;;;6.88;;
44462;SDS011;30170;52.190;8.702;2023-04-08T05:26:36;10.25;;;6.45;;
44462;SDS011;30170;52.190;8.702;2023-04-08T05:29:20;12.30;;;6.95;;
44462;SDS011;30170;52.190;8.702;2023-04-08T05:32:00;14.35;;;7.55;;
44462;SDS011;30170;52.190;8.702;2023-04-08T05:34:30;12.50;;;7.28;;
44462;SDS011;30170;52.190;8.702;2023-04-08T05:37:26;15.70;;;9.10;;
44462;SDS011;30170;52.190;8.702;2023-04-08T05:40:01;11.13;;;7.25;;
44462;SDS011;30170;52.190;8.702;2023-04-08T05:42:37;11.10;;;7.15;;
44462;SDS011;30170;52.190;8.702;2023-04-08T05:45:34;15.07;;;9.25;;
44462;SDS011;30170;52.190;8.702;2023-04-08T05:48:10;11.88;;;7.22;;
44462;SDS011;30170;52.190;8.702;2023-04-08T05:50:53;14.85;;;8.77;;
44462;SDS011;30170;52.190;8.702;2023-04-08T05:53:37;15.18;;;6.93;;
44462;SDS011;30170;52.190;8.702;2023-04-08T05:56:26;11.82;;;7.22;;
44462;SDS011;30170;52.190;8.702;2023-04-08T05:59:09;12.32;;;7.05;;
44462;SDS011;30170;52.190;8.702;2023-04-08T06:02:01;13.00;;;7.00;;
44462;SDS011;30170;52.190;8.702;2023-04-08T06:04:59;11.85;;;7.22;;
44462;SDS011;30170;52.190;8.702;2023-04-08T06:08:05;12.40;;;7.55;;
44462;SDS011;30170;52.190;8.702;2023-04-08T06:14:13;14.63;;;7.47;;
44462;SDS011;30170;52.190;8.702;2023-04-08T06:16:55;12.48;;;7.43;;
44462;SDS011;30170;52.190;8.702;2023-04-08T06:19:53;14.10;;;8.30;;
44462;SDS011;30170;52.190;8.702;2023-04-08T06:22:44;14.68;;;8.20;;
44462;SDS011;30170;52.190;8.702;2023-04-08T06:25:28;15.77;;;7.78;;
44462;SDS011;30170;52.190;8.702;2023-04-08T06:28:01;14.60;;;7.80;;
44462;SDS011;30170;52.190;8.702;2023-04-08T06:30:50;12.60;;;7.60;;
44462;SDS011;30170;52.190;8.702;2023-04-08T06:33:37;13.68;;;7.72;;
44462;SDS011;30170;52.190;8.702;2023-04-08T06:36:24;14.77;;;9.02;;
44462;SDS011;30170;52.190;8.702;2023-04-08T06:39:18;14.23;;;8.05;;
44462;SDS011;30170;52.190;8.702;2023-04-08T06:42:01;14.20;;;9.55;;
44462;SDS011;30170;52.190;8.702;2023-04-08T06:44:34;14.52;;;8.38;;
44462;SDS011;30170;52.190;8.702;2023-04-08T06:47:16;14.55;;;8.75;;
44462;SDS011;30170;52.190;8.702;2023-04-08T06:50:01;15.73;;;8.10;;
44462;SDS011;30170;52.190;8.702;2023-04-08T06:52:51;14.02;;;9.63;;
44462;SDS011;30170;52.190;8.702;2023-04-08T06:56:08;14.75;;;9.55;;
44462;SDS011;30170;52.190;8.702;2023-04-08T06:58:50;15.80;;;10.30;;
44462;SDS011;30170;52.190;8.702;2023-04-08T07:01:45;18.35;;;11.43;;
44462;SDS011;30170;52.190;8.702;2023-04-08T07:04:29;15.90;;;10.73;;
44462;SDS011;30170;52.190;8.702;2023-04-08T07:07:25;16.08;;;10.60;;
44462;SDS011;30170;52.190;8.702;2023-04-08T07:10:01;15.95;;;10.27;;
44462;SDS011;30170;52.190;8.702;2023-04-08T07:13:01;20.65;;;11.75;;
44462;SDS011;30170;52.190;8.702;2023-04-08T07:15:47;17.70;;;11.27;;
44462;SDS011;30170;52.190;8.702;2023-04-08T07:18:45;16.45;;;9.70;;
44462;SDS011;30170;52.190;8.702;2023-04-08T07:22:02;18.27;;;11.20;;
44462;SDS011;30170;52.190;8.702;2023-04-08T07:24:42;19.75;;;11.23;;
44462;SDS011;30170;52.190;8.702;2023-04-08T07:27:32;19.13;;;11.73;;
44462;SDS011;30170;52.190;8.702;2023-04-08T07:30:15;24.20;;;13.63;;
44462;SDS011;30170;52.190;8.702;2023-04-08T07:33:14;21.73;;;12.30;;
44462;SDS011;30170;52.190;8.702;2023-04-08T07:36:03;21.08;;;11.45;;
44462;SDS011;30170;52.190;8.702;2023-04-08T07:39:03;21.55;;;12.05;;
44462;SDS011;30170;52.190;8.702;2023-04-08T07:41:47;22.00;;;12.68;;
44462;SDS011;30170;52.190;8.702;2023-04-08T07:44:20;20.63;;;12.10;;
44462;SDS011;30170;52.190;8.702;2023-04-08T07:47:11;23.20;;;12.30;;
44462;SDS011;30170;52.190;8.702;2023-04-08T07:49:57;22.55;;;12.65;;
44462;SDS011;30170;52.190;8.702;2023-04-08T07:52:45;21.83;;;12.35;;
44462;SDS011;30170;52.190;8.702;2023-04-08T07:55:35;22.10;;;12.07;;
44462;SDS011;30170;52.190;8.702;2023-04-08T07:58:24;19.13;;;12.80;;
44462;SDS011;30170;52.190;8.702;2023-04-08T08:01:22;21.00;;;11.98;;
44462;SDS011;30170;52.190;8.702;2023-04-08T08:04:16;23.75;;;12.48;;
44462;SDS011;30170;52.190;8.702;2023-04-08T08:07:26;19.73;;;11.88;;
44462;SDS011;30170;52.190;8.702;2023-04-08T08:10:06;19.33;;;12.90;;
44462;SDS011;30170;52.190;8.702;2023-04-08T08:13:15;21.80;;;12.05;;
44462;SDS011;30170;52.190;8.702;2023-04-08T08:16:07;20.10;;;11.93;;
44462;SDS011;30170;52.190;8.702;2023-04-08T08:22:20;19.63;;;11.13;;
44462;SDS011;30170;52.190;8.702;2023-04-08T08:24:55;20.00;;;11.75;;
44462;SDS011;30170;52.190;8.702;2023-04-08T08:27:36;19.92;;;12.43;;
44462;SDS011;30170;52.190;8.702;2023-04-08T08:30:27;20.40;;;12.48;;
44462;SDS011;30170;52.190;8.702;2023-04-08T08:33:02;18.70;;;12.70;;
44462;SDS011;30170;52.190;8.702;2023-04-08T08:35:52;17.63;;;11.35;;
44462;SDS011;30170;52.190;8.702;2023-04-08T08:38:50;18.60;;;12.18;;
44462;SDS011;30170;52.190;8.702;2023-04-08T08:45:40;22.90;;;11.68;;
44462;SDS011;30170;52.190;8.702;2023-04-08T08:51:29;19.63;;;10.55;;
44462;SDS011;30170;52.190;8.702;2023-04-08T08:54:37;22.35;;;12.90;;
44462;SDS011;30170;52.190;8.702;2023-04-08T09:17:39;19.63;;;11.50;;
44462;SDS011;30170;52.190;8.702;2023-04-08T09:20:20;19.38;;;10.95;;
44462;SDS011;30170;52.190;8.702;2023-04-08T09:29:34;17.85;;;10.93;;
44462;SDS011;30170;52.190;8.702;2023-04-08T09:32:24;19.23;;;11.52;;
44462;SDS011;30170;52.190;8.702;2023-04-08T09:35:25;23.20;;;12.85;;
44462;SDS011;30170;52.190;8.702;2023-04-08T09:38:38;19.58;;;11.32;;
44462;SDS011;30170;52.190;8.702;2023-04-08T09:41:25;19.92;;;11.10;;
44462;SDS011;30170;52.190;8.702;2023-04-08T09:44:39;21.25;;;12.02;;
44462;SDS011;30170;52.190;8.702;2023-04-08T09:47:21;18.13;;;11.30;;
44462;SDS011;30170;52.190;8.702;2023-04-08T09:50:08;21.75;;;11.85;;
44462;SDS011;30170;52.190;8.702;2023-04-08T09:52:44;21.02;;;12.10;;
44462;SDS011;30170;52.190;8.702;2023-04-08T09:55:37;22.10;;;12.15;;
44462;SDS011;30170;52.190;8.702;2023-04-08T09:58:34;18.70;;;11.70;;
44462;SDS011;30170;52.190;8.702;2023-04-08T10:01:53;21.52;;;12.48;;
44462;SDS011;30170;52.190;8.702;2023-04-08T10:04:42;23.33;;;12.23;;
44462;SDS011;30170;52.190;8.702;2023-04-08T10:08:02;22.05;;;12.23;;
44462;SDS011;30170;52.190;8.702;2023-04-08T10:10:47;18.45;;;11.50;;
44462;SDS011;30170;52.190;8.702;2023-04-08T10:13:37;20.17;;;11.70;;
44462;SDS011;30170;52.190;8.702;2023-04-08T10:16:25;17.95;;;11.15;;
44462;SDS011;30170;52.190;8.702;2023-04-08T10:19:37;19.30;;;11.65;;
44462;SDS011;30170;52.190;8.702;2023-04-08T10:25:49;17.20;;;10.52;;
44462;SDS011;30170;52.190;8.702;2023-04-08T10:28:49;19.75;;;11.95;;
44462;SDS011;30170;52.190;8.702;2023-04-08T10:31:41;18.00;;;11.55;;
44462;SDS011;30170;52.190;8.702;2023-04-08T10:38:18;17.80;;;10.63;;
44462;SDS011;30170;52.190;8.702;2023-04-08T10:41:23;20.15;;;12.05;;
44462;SDS011;30170;52.190;8.702;2023-04-08T10:54:24;19.02;;;11.73;;
44462;SDS011;30170;52.190;8.702;2023-04-08T11:00:45;17.48;;;11.38;;
44462;SDS011;30170;52.190;8.702;2023-04-08T11:03:40;16.98;;;10.85;;
44462;SDS011;30170;52.190;8.702;2023-04-08T11:07:04;18.05;;;11.55;;
44462;SDS011;30170;52.190;8.702;2023-04-08T11:09:54;20.42;;;12.07;;
44462;SDS011;30170;52.190;8.702;2023-04-08T11:13:00;18.75;;;12.30;;
44462;SDS011;30170;52.190;8.702;2023-04-08T11:16:17;18.42;;;11.43;;
44462;SDS011;30170;52.190;8.702;2023-04-08T11:18:57;20.80;;;12.18;;
44462;SDS011;30170;52.190;8.702;2023-04-08T11:24:42;19.00;;;11.82;;
44462;SDS011;30170;52.190;8.702;2023-04-08T11:27:45;18.08;;;11.32;;
44462;SDS011;30170;52.190;8.702;2023-04-08T11:30:53;18.67;;;10.95;;
44462;SDS011;30170;52.190;8.702;2023-04-08T11:34:03;19.38;;;11.15;;
44462;SDS011;30170;52.190;8.702;2023-04-08T11:37:08;19.17;;;12.70;;
44462;SDS011;30170;52.190;8.702;2023-04-08T11:40:08;21.08;;;12.90;;
44462;SDS011;30170;52.190;8.702;2023-04-08T11:46:36;22.63;;;11.90;;
44462;SDS011;30170;52.190;8.702;2023-04-08T11:56:49;18.02;;;11.45;;
44462;SDS011;30170;52.190;8.702;2023-04-08T12:00:05;23.38;;;12.40;;
44462;SDS011;30170;52.190;8.702;2023-04-08T12:03:10;19.95;;;10.65;;
44462;SDS011;30170;52.190;8.702;2023-04-08T12:10:05;18.92;;;12.80;;
44462;SDS011;30170;52.190;8.702;2023-04-08T12:13:11;21.00;;;12.40;;
44462;SDS011;30170;52.190;8.702;2023-04-08T12:16:11;18.73;;;11.38;;
44462;SDS011;30170;52.190;8.702;2023-04-08T12:25:40;19.65;;;11.88;;
44462;SDS011;30170;52.190;8.702;2023-04-08T12:28:25;17.27;;;11.20;;
44462;SDS011;30170;52.190;8.702;2023-04-08T12:34:53;18.88;;;11.52;;
44462;SDS011;30170;52.190;8.702;2023-04-08T12:37:55;15.77;;;10.82;;
44462;SDS011;30170;52.190;8.702;2023-04-08T12:40:59;19.27;;;10.70;;
44462;SDS011;30170;52.190;8.702;2023-04-08T12:44:23;15.68;;;10.10;;
44462;SDS011;30170;52.190;8.702;2023-04-08T12:47:21;17.17;;;9.80;;
44462;SDS011;30170;52.190;8.702;2023-04-08T12:50:36;16.95;;;10.30;;
44462;SDS011;30170;52.190;8.702;2023-04-08T12:53:53;17.42;;;11.57;;
44462;SDS011;30170;52.190;8.702;2023-04-08T12:57:04;16.35;;;11.02;;
44462;SDS011;30170;52.190;8.702;2023-04-08T13:00:15;16.55;;;10.30;;
44462;SDS011;30170;52.190;8.702;2023-04-08T13:03:01;16.92;;;11.27;;
44462;SDS011;30170;52.190;8.702;2023-04-08T13:06:11;22.83;;;12.20;;
44462;SDS011;30170;52.190;8.702;2023-04-08T13:12:34;19.55;;;11.02;;
44462;SDS011;30170;52.190;8.702;2023-04-08T13:15:49;17.50;;;11.13;;
44462;SDS011;30170;52.190;8.702;2023-04-08T13:18:50;16.80;;;10.73;;
44462;SDS011;30170;52.190;8.702;2023-04-08T13:24:55;21.27;;;12.80;;
44462;SDS011;30170;52.190;8.702;2023-04-08T13:27:47;22.23;;;11.80;;
44462;SDS011;30170;52.190;8.702;2023-04-08T13:31:00;18.63;;;11.63;;
44462;SDS011;30170;52.190;8.702;2023-04-08T13:33:44;22.90;;;12.98;;
44462;SDS011;30170;52.190;8.702;2023-04-08T13:36:27;18.65;;;12.00;;
44462;SDS011;30170;52.190;8.702;2023-04-08T13:39:17;18.38;;;12.48;;
44462;SDS011;30170;52.190;8.702;2023-04-08T13:42:14;21.02;;;12.57;;
44462;SDS011;30170;52.190;8.702;2023-04-08T13:48:40;20.30;;;11.77;;
44462;SDS011;30170;52.190;8.702;2023-04-08T13:54:38;19.85;;;12.77;;
44462;SDS011;30170;52.190;8.702;2023-04-08T13:57:51;21.92;;;12.82;;
44462;SDS011;30170;52.190;8.702;2023-04-08T14:10:44;23.40;;;13.68;;
44462;SDS011;30170;52.190;8.702;2023-04-08T14:13:35;22.05;;;12.70;;
44462;SDS011;30170;52.190;8.702;2023-04-08T14:16:26;21.85;;;12.98;;
44462;SDS011;30170;52.190;8.702;2023-04-08T14:19:25;20.20;;;12.52;;
44462;SDS011;30170;52.190;8.702;2023-04-08T14:25:22;23.48;;;13.50;;
44462;SDS011;30170;52.190;8.702;2023-04-08T14:28:15;24.58;;;14.40;;
44462;SDS011;30170;52.190;8.702;2023-04-08T14:37:43;22.00;;;12.98;;
44462;SDS011;30170;52.190;8.702;2023-04-08T14:41:00;24.73;;;13.60;;
44462;SDS011;30170;52.190;8.702;2023-04-08T14:44:15;22.38;;;12.70;;
44462;SDS011;30170;52.190;8.702;2023-04-08T14:47:10;21.13;;;13.73;;
44462;SDS011;30170;52.190;8.702;2023-04-08T14:50:12;22.42;;;13.85;;
44462;SDS011;30170;52.190;8.702;2023-04-08T14:53:10;20.33;;;13.00;;
44462;SDS011;30170;52.190;8.702;2023-04-08T14:55:52;25.38;;;14.48;;
44462;SDS011;30170;52.190;8.702;2023-04-08T14:58:37;23.02;;;14.82;;
44462;SDS011;30170;52.190;8.702;2023-04-08T15:08:49;25.38;;;14.35;;
44462;SDS011;30170;52.190;8.702;2023-04-08T15:18:01;18.48;;;12.02;;
44462;SDS011;30170;52.190;8.702;2023-04-08T15:20:51;19.63;;;13.15;;
44462;SDS011;30170;52.190;8.702;2023-04-08T15:23:18;20.77;;;13.98;;
44462;SDS011;30170;52.190;8.702;2023-04-08T15:26:22;21.50;;;15.27;;
44462;SDS011;30170;52.190;8.702;2023-04-08T15:29:12;17.08;;;12.13;;
44462;SDS011;30170;52.190;8.702;2023-04-08T15:31:57;22.13;;;13.20;;
44462;SDS011;30170;52.190;8.702;2023-04-08T15:35:03;18.65;;;12.95;;
44462;SDS011;30170;52.190;8.702;2023-04-08T15:38:12;21.20;;;13.75;;
44462;SDS011;30170;52.190;8.702;2023-04-08T15:40:47;22.75;;;14.05;;
44462;SDS011;30170;52.190;8.702;2023-04-08T15:43:28;22.17;;;14.07;;
44462;SDS011;30170;52.190;8.702;2023-04-08T15:46:02;20.33;;;14.13;;
44462;SDS011;30170;52.190;8.702;2023-04-08T15:48:38;21.85;;;13.85;;
44462;SDS011;30170;52.190;8.702;2023-04-08T15:51:35;23.63;;;14.00;;
44462;SDS011;30170;52.190;8.702;2023-04-08T15:57:26;22.05;;;12.52;;
44462;SDS011;30170;52.190;8.702;2023-04-08T16:06:56;21.10;;;12.95;;
44462;SDS011;30170;52.190;8.702;2023-04-08T16:09:45;18.50;;;13.95;;
44462;SDS011;30170;52.190;8.702;2023-04-08T16:12:20;19.67;;;13.75;;
44462;SDS011;30170;52.190;8.702;2023-04-08T16:15:13;21.80;;;14.05;;
44462;SDS011;30170;52.190;8.702;2023-04-08T16:28:38;24.48;;;15.18;;
44462;SDS011;30170;52.190;8.702;2023-04-08T16:31:24;21.95;;;13.27;;
44462;SDS011;30170;52.190;8.702;2023-04-08T16:37:23;23.65;;;14.93;;
44462;SDS011;30170;52.190;8.702;2023-04-08T16:40:24;28.25;;;15.07;;
44462;SDS011;30170;52.190;8.702;2023-04-08T16:45:49;21.15;;;14.43;;
44462;SDS011;30170;52.190;8.702;2023-04-08T16:48:36;21.95;;;14.80;;
44462;SDS011;30170;52.190;8.702;2023-04-08T16:57:38;24.10;;;14.80;;
44462;SDS011;30170;52.190;8.702;2023-04-08T17:01:17;23.38;;;14.75;;
44462;SDS011;30170;52.190;8.702;2023-04-08T17:04:15;24.02;;;15.25;;
44462;SDS011;30170;52.190;8.702;2023-04-08T17:07:07;23.85;;;15.90;;
44462;SDS011;30170;52.190;8.702;2023-04-08T17:10:23;22.08;;;14.88;;
44462;SDS011;30170;52.190;8.702;2023-04-08T17:13:20;22.95;;;14.55;;
44462;SDS011;30170;52.190;8.702;2023-04-08T17:22:25;22.45;;;14.43;;
44462;SDS011;30170;52.190;8.702;2023-04-08T17:25:27;25.25;;;13.75;;
44462;SDS011;30170;52.190;8.702;2023-04-08T17:35:43;23.45;;;14.65;;
44462;SDS011;30170;52.190;8.702;2023-04-08T17:41:42;23.80;;;15.95;;
44462;SDS011;30170;52.190;8.702;2023-04-08T17:44:28;27.65;;;16.52;;
44462;SDS011;30170;52.190;8.702;2023-04-08T17:47:40;22.65;;;15.70;;
44462;SDS011;30170;52.190;8.702;2023-04-08T17:50:21;29.88;;;18.60;;
44462;SDS011;30170;52.190;8.702;2023-04-08T17:53:38;30.88;;;16.90;;
44462;SDS011;30170;52.190;8.702;2023-04-08T17:56:27;27.33;;;17.60;;
44462;SDS011;30170;52.190;8.702;2023-04-08T17:59:04;28.00;;;16.90;;
44462;SDS011;30170;52.190;8.702;2023-04-08T18:02:04;30.83;;;19.17;;
44462;SDS011;30170;52.190;8.702;2023-04-08T18:08:34;39.95;;;24.50;;
44462;SDS011;30170;52.190;8.702;2023-04-08T18:11:30;28.73;;;19.88;;
44462;SDS011;30170;52.190;8.702;2023-04-08T18:14:13;34.15;;;23.23;;
44462;SDS011;30170;52.190;8.702;2023-04-08T18:17:07;38.05;;;23.73;;
44462;SDS011;30170;52.190;8.702;2023-04-08T18:19:40;44.25;;;28.52;;
44462;SDS011;30170;52.190;8.702;2023-04-08T18:22:32;34.88;;;23.15;;
44462;SDS011;30170;52.190;8.702;2023-04-08T18:25:36;40.20;;;23.00;;
44462;SDS011;30170;52.190;8.702;2023-04-08T18:28:13;44.83;;;26.25;;
44462;SDS011;30170;52.190;8.702;2023-04-08T18:31:27;46.60;;;27.70;;
44462;SDS011;30170;52.190;8.702;2023-04-08T18:34:08;71.07;;;42.75;;
44462;SDS011;30170;52.190;8.702;2023-04-08T18:37:01;57.28;;;30.13;;
44462;SDS011;30170;52.190;8.702;2023-04-08T18:39:44;53.80;;;30.90;;
44462;SDS011;30170;52.190;8.702;2023-04-08T18:42:35;54.75;;;33.47;;
44462;SDS011;30170;52.190;8.702;2023-04-08T18:45:30;51.67;;;29.42;;
44462;SDS011;30170;52.190;8.702;2023-04-08T18:48:15;50.97;;;29.63;;
44462;SDS011;30170;52.190;8.702;2023-04-08T18:51:14;45.05;;;28.50;;
44462;SDS011;30170;52.190;8.702;2023-04-08T18:57:44;61.63;;;37.58;;
44462;SDS011;30170;52.190;8.702;2023-04-08T19:00:56;48.60;;;28.05;;
44462;SDS011;30170;52.190;8.702;2023-04-08T19:03:39;51.25;;;25.77;;
44462;SDS011;30170;52.190;8.702;2023-04-08T19:06:33;49.10;;;31.02;;
44462;SDS011;30170;52.190;8.702;2023-04-08T19:09:32;47.78;;;29.38;;
44462;SDS011;30170;52.190;8.702;2023-04-08T19:12:24;45.38;;;28.33;;
44462;SDS011;30170;52.190;8.702;2023-04-08T19:15:15;48.67;;;29.88;;
44462;SDS011;30170;52.190;8.702;2023-04-08T19:18:04;50.25;;;30.55;;
44462;SDS011;30170;52.190;8.702;2023-04-08T19:20:57;51.20;;;33.30;;
44462;SDS011;30170;52.190;8.702;2023-04-08T19:26:39;48.47;;;29.05;;
44462;SDS011;30170;52.190;8.702;2023-04-08T19:29:31;44.73;;;27.07;;
44462;SDS011;30170;52.190;8.702;2023-04-08T19:32:34;48.03;;;28.20;;
44462;SDS011;30170;52.190;8.702;2023-04-08T19:35:20;42.15;;;22.75;;
44462;SDS011;30170;52.190;8.702;2023-04-08T19:38:26;43.28;;;26.45;;
44462;SDS011;30170;52.190;8.702;2023-04-08T19:44:08;45.28;;;26.90;;
44462;SDS011;30170;52.190;8.702;2023-04-08T19:47:07;44.88;;;27.65;;
44462;SDS011;30170;52.190;8.702;2023-04-08T19:49:56;42.67;;;27.08;;
44462;SDS011;30170;52.190;8.702;2023-04-08T19:52:33;39.15;;;24.10;;
44462;SDS011;30170;52.190;8.702;2023-04-08T19:55:14;38.13;;;21.92;;
44462;SDS011;30170;52.190;8.702;2023-04-08T19:58:37;34.70;;;21.48;;
44462;SDS011;30170;52.190;8.702;2023-04-08T20:01:29;35.75;;;21.77;;
44462;SDS011;30170;52.190;8.702;2023-04-08T20:04:19;34.15;;;19.98;;
44462;SDS011;30170;52.190;8.702;2023-04-08T20:07:09;37.58;;;22.00;;
44462;SDS011;30170;52.190;8.702;2023-04-08T20:09:54;34.60;;;20.17;;
44462;SDS011;30170;52.190;8.702;2023-04-08T20:12:37;29.45;;;19.58;;
44462;SDS011;30170;52.190;8.702;2023-04-08T20:15:26;33.53;;;21.40;;
44462;SDS011;30170;52.190;8.702;2023-04-08T20:28:03;30.33;;;18.88;;
44462;SDS011;30170;52.190;8.702;2023-04-08T20:30:44;30.13;;;18.40;;
44462;SDS011;30170;52.190;8.702;2023-04-08T20:33:35;26.15;;;15.23;;
44462;SDS011;30170;52.190;8.702;2023-04-08T20:36:28;28.75;;;16.73;;
44462;SDS011;30170;52.190;8.702;2023-04-08T20:39:15;28.88;;;18.23;;
44462;SDS011;30170;52.190;8.702;2023-04-08T20:45:25;31.83;;;19.27;;
44462;SDS011;30170;52.190;8.702;2023-04-08T20:48:28;29.88;;;15.48;;
44462;SDS011;30170;52.190;8.702;2023-04-08T20:51:31;32.83;;;20.10;;
44462;SDS011;30170;52.190;8.702;2023-04-08T20:54:39;31.42;;;16.05;;
44462;SDS011;30170;52.190;8.702;2023-04-08T20:57:17;29.45;;;16.67;;
44462;SDS011;30170;52.190;8.702;2023-04-08T21:00:19;39.42;;;23.55;;
44462;SDS011;30170;52.190;8.702;2023-04-08T21:10:14;36.80;;;18.38;;
44462;SDS011;30170;52.190;8.702;2023-04-08T21:13:12;42.13;;;23.35;;
44462;SDS011;30170;52.190;8.702;2023-04-08T21:16:27;40.75;;;18.88;;
44462;SDS011;30170;52.190;8.702;2023-04-08T21:19:19;29.63;;;16.05;;
44462;SDS011;30170;52.190;8.702;2023-04-08T21:32:02;35.03;;;17.70;;
44462;SDS011;30170;52.190;8.702;2023-04-08T21:35:02;32.55;;;17.02;;
44462;SDS011;30170;52.190;8.702;2023-04-08T21:38:23;35.72;;;22.42;;
44462;SDS011;30170;52.190;8.702;2023-04-08T21:44:31;33.38;;;17.42;;